Friday, November 24, 2017, 5:32 AM GMT
Back to Local

CWDQ, La Tuque

Location: , , Canada Lat: 47.417
Local Time: 5:32 AM GMT ( 5:32 GMT) Lon: -72.8
Time Zone: GMT Elev: 554 ft

Show me the last for .
Show Decoded

2017-11-24 05:00 METAR CWDQ 240500Z AUTO 16005KT M04/M06 RMK AO1 SOG 10 6009 SLP075 T10441058 =
2017-11-24 04:00 METAR CWDQ 240400Z AUTO 17005KT M05/M06 RMK AO1 SOG 10 6015 SLP077 T10481062 =
2017-11-24 03:00 METAR CWDQ 240300Z AUTO 16005KT M05/M06 RMK AO1 SOG 10 7020 SLP078 T10531055 =
2017-11-24 02:00 METAR CWDQ 240200Z AUTO 17005KT M06/M07 RMK AO1 SOG 09 8019 SLP085 T10561067 =
2017-11-24 01:00 METAR CWDQ 240100Z AUTO 17006KT M05/M07 RMK AO1 SOG 09 8016 SLP093 T10451071 =
2017-11-24 00:00 METAR CWDQ 240000Z AUTO 16004KT M06/M07 RMK AO1 SOG 09 8012 SLP100 T10571072 =
2017-11-23 23:00 METAR CWDQ 232300Z AUTO 16004KT M06/M07 RMK AO1 SOG 09 7012 SLP105 T10561072 =
2017-11-23 22:00 METAR CWDQ 232200Z AUTO 16004KT M05/M08 RMK AO1 SOG 10 6014 SLP109 T10451076 =
2017-11-23 21:00 METAR CWDQ 232100Z AUTO 16004KT M05/M08 RMK AO1 SOG 10 6022 SLP111 T10451081 =
2017-11-23 20:00 METAR CWDQ 232000Z AUTO 17006KT M06/M09 RMK AO1 SOG 10 7024 SLP116 T10561087 =
2017-11-23 19:00 METAR CWDQ 231900Z AUTO 18006KT M05/M09 RMK AO1 SOG 10 6029 SLP123 T10541091 =
2017-11-23 18:00 METAR CWDQ 231800Z AUTO 18005KT M06/M10 RMK AO1 SOG 10 6035 SLP134 T10601101
                 50010 =
2017-11-23 17:00 METAR CWDQ 231700Z AUTO 19005KT M07/M11 RMK AO1 SOG 10 8031 SLP141 T10681108
                 50010 =
2017-11-23 16:00 METAR CWDQ 231600Z AUTO 19005KT M07/M11 RMK AO1 0PAST HR SOG 10 8020 SLP153
                 P0004 T10721110 50010 =
2017-11-23 15:00 METAR CWDQ 231500Z AUTO 21003KT M08/M12 RMK AO1 SOG 10 8002 SLP170 T10751115 =
2017-11-23 14:00 METAR CWDQ 231400Z AUTO 19002KT M08/M12 RMK AO1 SOG 10 0002 SLP173 T10831119 =
2017-11-23 13:00 METAR CWDQ 231300Z AUTO 17002KT M10/M12 RMK AO1 SOG 09 5000 SLP174 T11041121 =
2017-11-23 12:00 METAR CWDQ 231200Z AUTO 15002KT M11/M13 RMK AO1 SOG 09 5004 SLP172 T11121127 =
2017-11-23 11:00 METAR CWDQ 231100Z AUTO 06001KT M10/M12 RMK AO1 SOG 09 8004 SLP171 T11011117 =
2017-11-23 10:00 METAR CWDQ 231000Z AUTO 32002KT M08/M11 RMK AO1 SOG 10 6005 SLP173 T10811110 =
2017-11-23 09:00 METAR CWDQ 230900Z AUTO 33004KT M08/M11 RMK AO1 SOG 10 5002 SLP175 T10801111 =
2017-11-23 08:00 METAR CWDQ 230800Z AUTO 32004KT M08/M11 RMK AO1 SOG 10 6011 SLP174 T10801111 =
2017-11-23 07:00 METAR CWDQ 230700Z AUTO 32004KT M08/M11 RMK AO1 SOG 10 5008 SLP178 T10801114 =
2017-11-23 06:00 METAR CWDQ 230600Z AUTO 33004KT M08/M12 RMK AO1 SOG 10 8012 SLP177 T10811116 =

Support USWX by starting your Amazon purchase here.